Time;durP1;ratioP1;P1;durP2;ratioP2;P2;SDS_P1;SDS_P2;PMS_P1;PMS_P2;Temp;Humidity;BMP_temperature;BMP_pressure;BME280_temperature;BME280_humidity;BME280_pressure;Samples;Min_cycle;Max_cycle;Signal;HPM_P1;HPM_P2
2020/12/04 00:02:01;;;;;;;;;;;;;;;2.14;90.09;96250.75;5038527;28;20032;-79
2020/12/04 00:04:26;;;;;;;;;;;;;;;2.15;90.41;96244.00;5039886;28;19916;-79
2020/12/04 00:06:52;;;;;;;;;;;;;;;2.10;90.53;96231.50;5041172;28;19921;-79
2020/12/04 00:09:17;;;;;;;;;;;;;;;2.17;90.19;96235.41;5040478;28;20352;-79
2020/12/04 00:11:42;;;;;;;;;;;;;;;2.16;90.17;96225.31;5041035;28;19924;-79
2020/12/04 00:14:08;;;;;;;;;;;;;;;2.16;90.26;96217.69;5017077;28;19923;-79
2020/12/04 00:16:33;;;;;;;;;;;;;;;2.15;90.87;96205.91;5040477;28;19932;-78
2020/12/04 00:18:58;;;;;;;;;;;;;;;2.18;90.50;96190.53;5040502;28;19917;-77
2020/12/04 00:21:23;;;;;;;;;;;;;;;2.13;90.64;96184.84;5042320;28;19921;-78
2020/12/04 00:23:49;;;;;;;;;;;;;;;2.24;90.24;96180.94;5038586;28;20290;-77
2020/12/04 00:26:14;;;;;;;;;;;;;;;2.20;90.57;96163.38;5031481;28;20062;-77
2020/12/04 00:28:39;;;;;;;;;;;;;;;2.20;90.87;96173.53;5038685;28;19974;-78
2020/12/04 00:31:05;;;;;;;;;;;;;;;2.20;90.90;96173.53;5039839;28;19913;-78
2020/12/04 00:33:30;;;;;;;;;;;;;;;2.21;90.54;96177.69;5041197;28;19913;-79
2020/12/04 00:35:55;;;;;;;;;;;;;;;2.24;91.04;96169.97;5039499;28;19928;-79
2020/12/04 00:38:21;;;;;;;;;;;;;;;2.25;90.67;96157.19;5039455;28;19917;-80
2020/12/04 00:40:46;;;;;;;;;;;;;;;2.32;90.37;96157.72;5041024;28;20035;-78
2020/12/04 00:43:11;;;;;;;;;;;;;;;2.33;90.73;96161.94;5039960;28;19947;-79
2020/12/04 00:45:37;;;;;;;;;;;;;;;2.33;90.89;96146.69;5039310;28;19935;-79
2020/12/04 00:48:02;;;;;;;;;;;;;;;2.37;90.92;96144.81;5037435;28;19921;-80
2020/12/04 00:50:28;;;;;;;;;;;;;;;2.33;90.92;96151.78;5040556;28;19940;-79
2020/12/04 00:52:54;;;;;;;;;;;;;;;2.38;91.07;96151.56;5040940;28;19925;-80
2020/12/04 00:55:19;;;;;;;;;;;;;;;2.36;90.70;96130.50;5041110;28;19960;-79
2020/12/04 00:57:45;;;;;;;;;;;;;;;2.36;90.89;96118.59;5039268;28;19926;-78
2020/12/04 01:00:10;;;;;;;;;;;;;;;2.34;91.00;96110.25;5038480;28;20440;-79
2020/12/04 01:02:36;;;;;;;;;;;;;;;2.38;91.27;96126.16;5038417;28;19917;-78
2020/12/04 01:05:01;;;;;;;;;;;;;;;2.36;90.98;96117.78;5038819;28;19936;-78
2020/12/04 01:07:26;;;;;;;;;;;;;;;2.38;90.89;96111.75;5041936;28;19928;-81
2020/12/04 01:09:52;;;;;;;;;;;;;;;2.37;91.11;96115.16;5037471;28;19928;-79
2020/12/04 01:12:17;;;;;;;;;;;;;;;2.37;91.01;96107.53;5041124;28;19980;-80
2020/12/04 01:14:42;;;;;;;;;;;;;;;2.35;90.90;96114.44;5040238;28;19916;-79
2020/12/04 01:17:08;;;;;;;;;;;;;;;2.32;91.00;96114.56;5038483;28;19956;-79
2020/12/04 01:19:33;;;;;;;;;;;;;;;2.38;91.04;96121.91;5038389;28;19913;-80
2020/12/04 01:21:58;;;;;;;;;;;;;;;2.39;90.73;96110.84;5039852;28;19916;-80
2020/12/04 01:24:24;;;;;;;;;;;;;;;2.35;91.15;96101.75;5041216;28;19921;-80
2020/12/04 01:26:49;;;;;;;;;;;;;;;2.29;91.14;96099.47;5040336;28;19916;-80
2020/12/04 01:29:14;;;;;;;;;;;;;;;2.28;91.25;96100.34;5042523;28;19920;-79
2020/12/04 01:31:43;;;;;;;;;;;;;;;2.31;91.03;96105.31;5040979;28;19927;-79
2020/12/04 01:34:09;;;;;;;;;;;;;;;2.34;90.73;96074.69;5040100;28;20471;-80
2020/12/04 01:36:34;;;;;;;;;;;;;;;2.34;91.18;96094.19;5031711;28;19962;-80
2020/12/04 01:39:00;;;;;;;;;;;;;;;2.34;90.86;96084.84;5041794;28;19917;-80
2020/12/04 01:41:25;;;;;;;;;;;;;;;2.24;91.56;96099.69;5038895;28;20004;-79
2020/12/04 01:43:50;;;;;;;;;;;;;;;2.29;91.36;96076.63;5033779;28;19921;-80
2020/12/04 01:46:16;;;;;;;;;;;;;;;2.32;91.37;96079.00;5038690;28;19917;-78
2020/12/04 01:48:43;;;;;;;;;;;;;;;2.29;91.06;96074.09;5037501;28;20124;-80
2020/12/04 01:51:08;;;;;;;;;;;;;;;2.31;90.99;96082.44;5037944;28;19975;-79
2020/12/04 01:53:34;;;;;;;;;;;;;;;2.28;91.53;96077.50;5035886;28;20340;-78
2020/12/04 01:55:59;;;;;;;;;;;;;;;2.22;92.03;96080.34;5035620;28;19917;-79
2020/12/04 01:58:25;;;;;;;;;;;;;;;2.27;92.37;96070.78;5037276;28;19971;-78
2020/12/04 02:00:50;;;;;;;;;;;;;;;2.19;92.53;96080.47;5041968;28;20374;-78
2020/12/04 02:03:16;;;;;;;;;;;;;;;2.24;92.35;96083.63;5040285;28;20184;-78
2020/12/04 02:05:59;;;;;;;;;;;;;;;2.25;92.26;96070.03;5039073;28;19917;-78
2020/12/04 02:08:39;;;;;;;;;;;;;;;2.28;92.05;96074.97;5039763;28;20435;-78
2020/12/04 02:11:10;;;;;;;;;;;;;;;2.31;92.21;96069.75;5016539;28;20019;-78
2020/12/04 02:13:36;;;;;;;;;;;;;;;2.26;92.53;96066.63;5040826;28;19921;-79
2020/12/04 02:16:01;;;;;;;;;;;;;;;2.23;92.67;96070.09;5039350;28;19917;-79
2020/12/04 02:18:26;;;;;;;;;;;;;;;2.30;92.91;96068.09;5041119;28;19920;-78
2020/12/04 02:20:58;;;;;;;;;;;;;;;2.33;92.73;96062.91;5041057;28;20291;-78
2020/12/04 02:23:24;;;;;;;;;;;;;;;2.30;93.09;96068.09;5038695;28;20011;-79
2020/12/04 02:25:49;;;;;;;;;;;;;;;2.34;92.84;96071.34;5039859;28;20343;-79
2020/12/04 02:28:15;;;;;;;;;;;;;;;2.27;93.49;96068.25;5041524;28;19921;-78
2020/12/04 02:30:40;;;;;;;;;;;;;;;2.30;93.67;96075.72;5039014;28;20290;-78
2020/12/04 02:33:05;;;;;;;;;;;;;;;2.30;93.80;96063.03;5040147;28;19964;-79
2020/12/04 02:35:30;;;;;;;;;;;;;;;2.33;93.86;96060.34;5040509;28;19925;-79
2020/12/04 02:37:56;;;;;;;;;;;;;;;2.32;94.00;96050.25;5041015;28;19913;-79
2020/12/04 02:40:21;;;;;;;;;;;;;;;2.28;94.25;96055.50;5039410;28;19953;-78
2020/12/04 02:42:47;;;;;;;;;;;;;;;2.30;94.15;96041.00;5038736;28;19917;-79
2020/12/04 02:45:15;;;;;;;;;;;;;;;2.28;94.50;96050.41;5039663;28;20023;-78
2020/12/04 02:47:40;;;;;;;;;;;;;;;2.33;94.42;96052.75;5041072;28;20398;-79
2020/12/04 02:50:06;;;;;;;;;;;;;;;2.35;94.56;96045.88;5039094;28;19959;-78
2020/12/04 02:52:31;;;;;;;;;;;;;;;2.32;94.79;96046.00;5040648;28;19921;-79
2020/12/04 02:54:56;;;;;;;;;;;;;;;2.36;94.79;96037.34;5016053;28;19981;-79
2020/12/04 02:57:22;;;;;;;;;;;;;;;2.36;94.88;96047.50;5039809;28;19997;-79
2020/12/04 02:59:47;;;;;;;;;;;;;;;2.38;95.25;96035.56;5040606;28;19917;-79
2020/12/04 03:02:12;;;;;;;;;;;;;;;2.34;95.16;96039.13;5041062;28;19925;-79
2020/12/04 03:04:38;;;;;;;;;;;;;;;2.35;95.21;96038.25;5032783;28;19921;-79
2020/12/04 03:07:03;;;;;;;;;;;;;;;2.33;95.83;96047.66;5034491;28;19920;-79
2020/12/04 03:09:29;;;;;;;;;;;;;;;2.34;95.89;96039.13;5037929;28;19925;-79
2020/12/04 03:11:55;;;;;;;;;;;;;;;2.35;96.13;96035.72;5018513;28;19966;-80
2020/12/04 03:14:20;;;;;;;;;;;;;;;2.34;96.10;96023.09;5042200;28;19932;-79
2020/12/04 03:16:46;;;;;;;;;;;;;;;2.35;96.11;96035.72;5039726;28;19913;-79
2020/12/04 03:19:11;;;;;;;;;;;;;;;2.34;96.13;96023.91;5023146;28;19932;-80
2020/12/04 03:21:36;;;;;;;;;;;;;;;2.32;96.37;96030.75;5042913;28;19967;-79
2020/12/04 03:24:01;;;;;;;;;;;;;;;2.32;96.40;96015.53;5040420;28;19921;-79
2020/12/04 03:26:27;;;;;;;;;;;;;;;2.33;96.28;96021.41;5039123;28;19917;-80
2020/12/04 03:28:52;;;;;;;;;;;;;;;2.28;97.34;96024.19;5041045;28;19924;-79
2020/12/04 03:31:17;;;;;;;;;;;;;;;2.27;96.89;96025.09;5043177;28;19921;-80
2020/12/04 03:33:43;;;;;;;;;;;;;;;2.26;96.98;96023.44;5041955;28;20262;-80
2020/12/04 03:36:08;;;;;;;;;;;;;;;2.22;97.10;96015.16;5039847;28;19925;-80
2020/12/04 03:38:33;;;;;;;;;;;;;;;2.20;97.30;96016.13;5041228;28;20029;-80
2020/12/04 03:40:59;;;;;;;;;;;;;;;2.21;97.26;96015.22;5033576;28;19917;-79
2020/12/04 03:43:24;;;;;;;;;;;;;;;2.17;97.02;96012.00;5037707;28;19967;-79
2020/12/04 03:45:49;;;;;;;;;;;;;;;2.18;97.39;96013.63;5034321;28;19928;-79
2020/12/04 03:48:15;;;;;;;;;;;;;;;2.17;96.96;96006.94;5042247;28;19964;-80
2020/12/04 03:50:40;;;;;;;;;;;;;;;2.24;96.97;96002.38;5038656;28;20462;-79
2020/12/04 03:53:06;;;;;;;;;;;;;;;2.24;96.99;96015.09;5042106;28;19921;-79
2020/12/04 03:55:32;;;;;;;;;;;;;;;2.26;96.20;96005.69;5025471;28;19925;-79
2020/12/04 03:57:57;;;;;;;;;;;;;;;2.21;96.80;96012.66;5037916;28;19931;-79
2020/12/04 04:00:22;;;;;;;;;;;;;;;2.21;96.88;95998.28;5039046;28;20381;-80
2020/12/04 04:02:48;;;;;;;;;;;;;;;2.27;96.63;95987.81;5016948;28;20054;-79
2020/12/04 04:05:13;;;;;;;;;;;;;;;2.23;96.43;95972.78;5033167;28;19928;-79
2020/12/04 04:07:39;;;;;;;;;;;;;;;2.18;96.78;95987.44;5039797;28;19917;-80
2020/12/04 04:10:04;;;;;;;;;;;;;;;2.23;96.33;95988.84;5039887;28;19913;-79
2020/12/04 04:12:29;;;;;;;;;;;;;;;2.25;96.52;95983.72;5041465;28;19920;-79
2020/12/04 04:14:54;;;;;;;;;;;;;;;2.35;95.99;95977.31;5043493;28;19920;-79
2020/12/04 04:17:20;;;;;;;;;;;;;;;2.33;96.03;95973.16;5042320;28;20033;-79
2020/12/04 04:19:45;;;;;;;;;;;;;;;2.38;95.73;95963.63;5042035;28;19943;-80
2020/12/04 04:22:10;;;;;;;;;;;;;;;2.41;95.47;95964.28;5041159;28;20009;-80
2020/12/04 04:24:36;;;;;;;;;;;;;;;2.36;95.47;95960.34;5015554;28;19943;-79
2020/12/04 04:27:01;;;;;;;;;;;;;;;2.33;95.50;95956.25;5040329;28;19956;-79
2020/12/04 04:29:27;;;;;;;;;;;;;;;2.45;95.21;95958.19;5040652;28;19916;-78
2020/12/04 04:31:52;;;;;;;;;;;;;;;2.42;95.06;95965.97;5039817;28;19921;-79
2020/12/04 04:34:17;;;;;;;;;;;;;;;2.40;95.11;95962.66;5038026;28;19963;-79
2020/12/04 04:36:44;;;;;;;;;;;;;;;2.48;94.83;95973.25;5037543;28;19917;-79
2020/12/04 04:39:09;;;;;;;;;;;;;;;2.49;94.52;95963.94;5039105;28;19932;-79
2020/12/04 04:41:35;;;;;;;;;;;;;;;2.50;94.38;95966.38;5032984;28;19941;-79
2020/12/04 04:44:00;;;;;;;;;;;;;;;2.57;94.61;95968.63;5038376;28;19971;-79
2020/12/04 04:46:25;;;;;;;;;;;;;;;2.60;94.17;95971.88;5039380;28;19913;-79
2020/12/04 04:48:54;;;;;;;;;;;;;;;2.60;94.14;95974.41;5041103;28;19975;-79
2020/12/04 04:51:24;;;;;;;;;;;;;;;2.65;94.08;95966.56;5038332;28;21466;-79
2020/12/04 04:53:55;;;;;;;;;;;;;;;2.66;94.29;95963.91;5042515;28;19921;-79
2020/12/04 04:56:21;;;;;;;;;;;;;;;2.70;93.78;95964.59;5040320;28;19920;-80
2020/12/04 04:58:46;;;;;;;;;;;;;;;2.70;93.77;95954.44;5036446;28;19935;-79
2020/12/04 05:01:11;;;;;;;;;;;;;;;2.64;93.98;95950.47;5036757;28;20989;-79
2020/12/04 05:03:36;;;;;;;;;;;;;;;2.76;93.36;95949.06;5038347;28;19916;-79
2020/12/04 05:06:02;;;;;;;;;;;;;;;2.74;93.80;95940.69;5037647;28;20030;-80
2020/12/04 05:08:27;;;;;;;;;;;;;;;2.78;93.62;95947.25;5037645;28;19932;-80
2020/12/04 05:10:53;;;;;;;;;;;;;;;2.82;93.16;95946.19;5037698;28;19917;-80
2020/12/04 05:13:18;;;;;;;;;;;;;;;2.82;93.44;95953.81;5036085;28;20516;-81
2020/12/04 05:15:44;;;;;;;;;;;;;;;2.87;93.51;95949.34;5039719;28;19921;-79
2020/12/04 05:18:10;;;;;;;;;;;;;;;2.82;93.15;95927.59;5037411;28;19917;-79
2020/12/04 05:20:37;;;;;;;;;;;;;;;2.91;92.98;95943.19;5038621;28;19928;-79
2020/12/04 05:23:02;;;;;;;;;;;;;;;2.93;93.07;95941.41;5039319;28;19931;-80
2020/12/04 05:25:47;;;;;;;;;;;;;;;2.86;93.38;95939.25;5038694;28;20375;-80
2020/12/04 05:28:13;;;;;;;;;;;;;;;2.93;92.91;95951.56;5036207;28;19979;-81
2020/12/04 05:30:43;;;;;;;;;;;;;;;2.96;93.06;95954.84;5038990;28;19943;-81
2020/12/04 05:33:08;;;;;;;;;;;;;;;2.98;92.83;95922.56;5042056;28;19964;-79
2020/12/04 05:35:34;;;;;;;;;;;;;;;2.93;93.07;95926.13;5041139;28;19963;-81
2020/12/04 05:38:06;;;;;;;;;;;;;;;2.93;93.29;95956.63;5043425;28;19921;-81
2020/12/04 05:40:31;;;;;;;;;;;;;;;2.95;93.54;95953.22;5043802;28;20562;-79
2020/12/04 05:42:56;;;;;;;;;;;;;;;2.97;93.19;95956.50;5043598;28;19927;-79
2020/12/04 05:45:22;;;;;;;;;;;;;;;3.01;93.23;95968.13;5040004;28;19960;-79
2020/12/04 05:47:48;;;;;;;;;;;;;;;2.97;94.00;95971.75;5042170;28;19963;-79
2020/12/04 05:50:14;;;;;;;;;;;;;;;3.03;93.57;95966.34;5041937;28;20594;-79
2020/12/04 05:52:39;;;;;;;;;;;;;;;3.04;94.16;95978.16;5042431;28;20370;-80
2020/12/04 05:55:07;;;;;;;;;;;;;;;2.99;94.45;95978.41;5039299;28;19917;-80
2020/12/04 05:57:51;;;;;;;;;;;;;;;3.03;94.75;95986.69;5043188;28;20015;-81
2020/12/04 06:03:32;;;;;;;;;;;;;;;2.98;95.08;95994.53;5039619;28;19924;-79
2020/12/04 06:05:57;;;;;;;;;;;;;;;3.00;94.86;95997.00;5018905;28;19945;-81
2020/12/04 06:08:23;;;;;;;;;;;;;;;3.01;95.21;95983.38;5040917;28;20368;-81
2020/12/04 06:10:51;;;;;;;;;;;;;;;3.01;95.90;95996.09;5039521;28;19916;-81
2020/12/04 06:13:16;;;;;;;;;;;;;;;2.99;95.87;95998.75;5042217;28;19916;-81
2020/12/04 06:15:41;;;;;;;;;;;;;;;2.96;95.77;95992.97;5040914;28;19928;-81
2020/12/04 06:18:07;;;;;;;;;;;;;;;2.95;96.24;95988.81;5041009;28;20421;-81
2020/12/04 06:20:46;;;;;;;;;;;;;;;2.97;96.66;95994.63;5041919;28;19925;-81
2020/12/04 06:23:13;;;;;;;;;;;;;;;2.96;96.36;95987.88;5040963;28;19948;-81
2020/12/04 06:25:50;;;;;;;;;;;;;;;2.94;96.25;96003.22;5039867;28;19917;-81
2020/12/04 06:28:16;;;;;;;;;;;;;;;2.97;96.60;96008.16;5041593;28;19917;-80
2020/12/04 06:30:43;;;;;;;;;;;;;;;2.94;96.70;96008.28;5040310;28;19919;-80
2020/12/04 06:33:08;;;;;;;;;;;;;;;2.93;96.64;96007.47;5041541;28;19913;-80
2020/12/04 06:35:43;;;;;;;;;;;;;;;2.92;96.91;96005.03;5041153;28;19932;-81
2020/12/04 06:38:27;;;;;;;;;;;;;;;2.85;96.62;95998.59;5040602;28;19913;-81
2020/12/04 06:40:52;;;;;;;;;;;;;;;2.95;96.74;95998.97;5043030;28;19924;-81
2020/12/04 06:43:33;;;;;;;;;;;;;;;2.88;96.62;96001.81;5040287;28;19913;-81
2020/12/04 06:45:58;;;;;;;;;;;;;;;2.92;96.92;95998.22;5040700;28;19959;-81
2020/12/04 06:48:24;;;;;;;;;;;;;;;2.94;96.92;96013.38;5044419;28;19917;-81
2020/12/04 06:50:50;;;;;;;;;;;;;;;2.95;96.77;96004.88;5043741;28;19912;-80
2020/12/04 06:53:16;;;;;;;;;;;;;;;2.97;96.73;96018.31;5042446;28;19928;-80
2020/12/04 06:55:42;;;;;;;;;;;;;;;2.96;96.61;96016.66;5042905;28;20459;-80
2020/12/04 06:58:07;;;;;;;;;;;;;;;2.97;96.65;96022.59;5042842;28;19913;-81
2020/12/04 07:00:33;;;;;;;;;;;;;;;2.96;96.78;96015.84;5041631;28;19914;-80
2020/12/04 07:02:59;;;;;;;;;;;;;;;2.95;96.85;96009.94;5040811;28;19921;-79
2020/12/04 07:05:24;;;;;;;;;;;;;;;2.91;97.24;96023.69;5040383;28;19913;-79
2020/12/04 07:07:50;;;;;;;;;;;;;;;2.93;96.98;96016.84;5042611;28;19920;-79
2020/12/04 07:10:15;;;;;;;;;;;;;;;2.95;96.77;96019.31;5041965;28;19921;-80
2020/12/04 07:12:41;;;;;;;;;;;;;;;2.95;97.05;96016.75;5042190;28;19928;-79
2020/12/04 07:15:06;;;;;;;;;;;;;;;2.97;97.11;96035.31;5042305;28;19917;-83
2020/12/04 07:17:32;;;;;;;;;;;;;;;2.98;97.20;96021.69;5043106;28;19921;-79
2020/12/04 07:19:59;;;;;;;;;;;;;;;2.99;97.10;96020.78;5042318;28;19993;-80
2020/12/04 07:22:24;;;;;;;;;;;;;;;2.96;97.24;96029.38;5043794;28;19999;-79
2020/12/04 07:24:50;;;;;;;;;;;;;;;2.97;97.33;96027.69;5042016;28;19948;-79
2020/12/04 07:27:17;;;;;;;;;;;;;;;2.98;96.82;96034.41;5043798;28;20335;-79
2020/12/04 07:29:43;;;;;;;;;;;;;;;3.02;97.04;96028.28;5042369;28;20388;-78
2020/12/04 07:32:08;;;;;;;;;;;;;;;3.00;96.77;96027.53;5042478;28;19913;-79
2020/12/04 07:34:36;;;;;;;;;;;;;;;3.01;96.64;96024.06;5042766;28;19925;-80
2020/12/04 07:37:02;;;;;;;;;;;;;;;3.10;97.09;96028.69;5043828;28;20004;-79
2020/12/04 07:39:29;;;;;;;;;;;;;;;3.01;96.54;96032.53;5033919;28;19921;-79
2020/12/04 07:41:56;;;;;;;;;;;;;;;3.06;96.83;96047.56;5039087;28;19925;-78
2020/12/04 07:44:30;;;;;;;;;;;;;;;3.10;96.50;96052.41;5044164;28;19917;-79
2020/12/04 07:46:59;;;;;;;;;;;;;;;3.05;96.50;96046.72;5038757;28;20682;-79
2020/12/04 07:49:26;;;;;;;;;;;;;;;3.08;96.38;96058.44;5037674;28;19921;-79
2020/12/04 07:51:51;;;;;;;;;;;;;;;3.11;96.34;96050.69;5037782;28;20386;-79
2020/12/04 07:54:21;;;;;;;;;;;;;;;3.23;96.22;96060.25;5037563;28;19920;-79
2020/12/04 07:56:53;;;;;;;;;;;;;;;3.17;96.18;96055.47;5013648;28;19917;-80
2020/12/04 07:59:25;;;;;;;;;;;;;;;3.19;96.12;96068.09;5039818;28;20336;-82
2020/12/04 08:01:51;;;;;;;;;;;;;;;3.20;96.11;96068.03;5041494;28;19935;-81
2020/12/04 08:04:17;;;;;;;;;;;;;;;3.24;96.03;96066.97;5038940;28;19921;-80
2020/12/04 08:06:42;;;;;;;;;;;;;;;3.24;96.08;96079.69;5039633;28;19927;-80
2020/12/04 08:09:08;;;;;;;;;;;;;;;3.28;96.25;96078.63;5039331;28;19956;-80
2020/12/04 08:11:38;;;;;;;;;;;;;;;3.28;95.89;96083.72;5037922;28;20062;-81
2020/12/04 08:14:04;;;;;;;;;;;;;;;3.36;95.40;96090.97;5037955;28;20012;-80
2020/12/04 08:16:30;;;;;;;;;;;;;;;3.41;95.55;96088.19;5039609;28;19923;-80
2020/12/04 08:19:00;;;;;;;;;;;;;;;3.41;95.82;96103.47;5039207;28;19928;-80
2020/12/04 08:21:26;;;;;;;;;;;;;;;3.38;95.13;96104.44;5040828;28;20012;-78
2020/12/04 08:23:54;;;;;;;;;;;;;;;3.48;95.42;96105.63;5038941;28;19917;-79
2020/12/04 08:26:20;;;;;;;;;;;;;;;3.48;95.59;96115.78;5040082;28;19917;-81
2020/12/04 08:28:54;;;;;;;;;;;;;;;3.53;94.89;96113.84;5041453;28;19970;-80
2020/12/04 08:31:23;;;;;;;;;;;;;;;3.58;95.33;96131.44;5039073;28;20016;-81
2020/12/04 08:33:49;;;;;;;;;;;;;;;3.57;95.33;96119.59;5039289;28;19961;-81
2020/12/04 08:36:14;;;;;;;;;;;;;;;3.58;94.62;96117.88;5041958;28;19916;-78
2020/12/04 08:38:48;;;;;;;;;;;;;;;3.56;94.99;96112.88;5040330;28;19917;-78
2020/12/04 08:41:13;;;;;;;;;;;;;;;3.64;95.20;96126.03;5038688;28;19927;-79
2020/12/04 08:43:40;;;;;;;;;;;;;;;3.77;95.18;96134.69;5038512;28;19917;-81
2020/12/04 08:46:09;;;;;;;;;;;;;;;3.72;94.75;96129.00;5039930;28;19920;-79
2020/12/04 08:48:36;;;;;;;;;;;;;;;3.75;95.08;96130.56;5039123;28;19917;-80
2020/12/04 08:51:02;;;;;;;;;;;;;;;3.81;94.54;96137.06;5037099;28;20350;-78
2020/12/04 08:53:27;;;;;;;;;;;;;;;3.75;94.22;96154.31;5045498;28;19917;-79
2020/12/04 08:55:53;;;;;;;;;;;;;;;3.73;94.44;96145.91;5039425;28;19916;-78
2020/12/04 08:58:19;;;;;;;;;;;;;;;3.74;94.56;96136.56;5039170;28;19913;-80
2020/12/04 09:00:45;;;;;;;;;;;;;;;3.80;94.35;96141.34;5039857;28;19913;-80
2020/12/04 09:03:11;;;;;;;;;;;;;;;3.82;94.72;96128.53;5031846;28;19939;-81
2020/12/04 09:05:36;;;;;;;;;;;;;;;3.81;94.69;96131.97;5039115;28;19924;-81
2020/12/04 09:08:02;;;;;;;;;;;;;;;3.85;94.49;96102.91;5036633;28;19932;-80
2020/12/04 09:10:27;;;;;;;;;;;;;;;3.91;94.53;96115.34;5039358;28;19917;-80
2020/12/04 09:12:56;;;;;;;;;;;;;;;3.89;94.14;96137.50;5039182;28;19945;-81
2020/12/04 09:15:21;;;;;;;;;;;;;;;3.93;94.43;96141.53;5039215;28;19917;-80
2020/12/04 09:17:47;;;;;;;;;;;;;;;4.00;94.25;96135.22;5037537;28;19914;-80
2020/12/04 09:20:12;;;;;;;;;;;;;;;3.93;93.86;96131.38;5039575;28;19932;-80
2020/12/04 09:22:38;;;;;;;;;;;;;;;4.01;94.51;96139.41;5037567;28;19917;-80
2020/12/04 09:25:07;;;;;;;;;;;;;;;4.00;94.20;96147.97;5036672;28;19966;-80
2020/12/04 09:27:33;;;;;;;;;;;;;;;4.03;94.06;96137.59;5038977;28;20376;-80
2020/12/04 09:29:58;;;;;;;;;;;;;;;4.00;94.13;96142.06;5039370;28;19960;-80
2020/12/04 09:32:24;;;;;;;;;;;;;;;4.05;94.30;96146.00;5038013;28;19916;-80
2020/12/04 09:34:50;;;;;;;;;;;;;;;4.08;94.29;96145.84;5014772;28;19925;-80
2020/12/04 09:37:20;;;;;;;;;;;;;;;4.12;94.26;96161.78;5039063;28;19917;-80
2020/12/04 09:39:46;;;;;;;;;;;;;;;4.07;94.19;96164.56;5039658;28;19924;-80
2020/12/04 09:42:12;;;;;;;;;;;;;;;4.11;93.80;96149.97;5036423;28;19914;-80
2020/12/04 09:44:37;;;;;;;;;;;;;;;4.15;94.22;96167.56;5038929;28;20651;-80
2020/12/04 09:47:03;;;;;;;;;;;;;;;4.14;94.46;96173.53;5039753;28;19917;-80
2020/12/04 09:49:28;;;;;;;;;;;;;;;4.10;94.18;96154.22;5039448;28;19932;-81
2020/12/04 09:51:54;;;;;;;;;;;;;;;4.19;94.06;96163.91;5037849;28;19923;-80
2020/12/04 09:54:20;;;;;;;;;;;;;;;4.22;94.02;96172.31;5013313;28;20391;-80
2020/12/04 09:56:46;;;;;;;;;;;;;;;4.23;93.66;96173.97;5037154;28;19913;-80
2020/12/04 09:59:14;;;;;;;;;;;;;;;4.28;94.15;96177.09;5037842;28;20006;-80
2020/12/04 10:01:39;;;;;;;;;;;;;;;4.36;93.41;96177.53;5038815;28;19913;-80
2020/12/04 10:04:05;;;;;;;;;;;;;;;4.39;93.81;96175.63;5037574;28;19919;-80
2020/12/04 10:06:30;;;;;;;;;;;;;;;4.31;93.60;96171.81;5038164;28;19913;-80
2020/12/04 10:08:55;;;;;;;;;;;;;;;4.31;93.78;96184.56;5038266;28;19924;-80
2020/12/04 10:11:20;;;;;;;;;;;;;;;4.34;93.88;96190.31;5037966;28;19924;-81
2020/12/04 10:13:46;;;;;;;;;;;;;;;4.33;93.68;96190.41;5037020;28;20429;-80
2020/12/04 10:16:11;;;;;;;;;;;;;;;4.41;94.25;96201.03;5037022;28;20004;-80
2020/12/04 10:18:36;;;;;;;;;;;;;;;4.46;93.75;96196.50;5037541;28;20961;-80
2020/12/04 10:21:02;;;;;;;;;;;;;;;4.47;93.81;96187.97;5041922;28;19924;-80
2020/12/04 10:23:27;;;;;;;;;;;;;;;4.44;93.54;96188.13;5017105;28;19917;-80
2020/12/04 10:25:52;;;;;;;;;;;;;;;4.53;93.35;96190.19;5040958;28;19940;-80
2020/12/04 10:28:18;;;;;;;;;;;;;;;4.57;93.55;96209.50;5040846;28;19991;-80
2020/12/04 10:30:43;;;;;;;;;;;;;;;4.58;93.26;96190.78;5041045;28;19912;-80
2020/12/04 10:33:08;;;;;;;;;;;;;;;4.60;93.03;96206.78;5040698;28;20547;-80
2020/12/04 10:35:34;;;;;;;;;;;;;;;4.69;93.57;96191.91;5041215;28;19928;-80
2020/12/04 10:37:59;;;;;;;;;;;;;;;4.63;93.15;96207.53;5041344;28;19917;-80
2020/12/04 10:40:24;;;;;;;;;;;;;;;4.72;93.19;96194.28;5040495;28;19913;-80
2020/12/04 10:42:51;;;;;;;;;;;;;;;4.77;92.98;96184.69;5041301;28;20394;-79
2020/12/04 10:45:16;;;;;;;;;;;;;;;4.81;92.62;96198.91;5034107;28;20000;-78
2020/12/04 10:47:41;;;;;;;;;;;;;;;4.82;92.27;96193.72;5040588;28;19952;-79
2020/12/04 10:50:08;;;;;;;;;;;;;;;4.98;92.28;96190.34;5041962;28;19923;-79
2020/12/04 10:52:33;;;;;;;;;;;;;;;4.98;92.25;96177.59;5042609;28;19920;-78
2020/12/04 10:54:58;;;;;;;;;;;;;;;5.07;91.87;96182.19;5040656;28;19997;-79
2020/12/04 10:57:23;;;;;;;;;;;;;;;5.20;91.91;96192.50;5041357;28;20315;-79
2020/12/04 10:59:49;;;;;;;;;;;;;;;5.26;91.83;96176.88;5040641;28;19916;-78
2020/12/04 11:02:24;;;;;;;;;;;;;;;5.29;91.43;96192.03;5040004;28;19925;-78
2020/12/04 11:07:33;;;;;;;;;;;;;;;5.30;91.29;96203.06;5041326;28;19970;-78
2020/12/04 11:09:58;;;;;;;;;;;;;;;5.26;91.15;96196.47;5040579;28;19980;-79
2020/12/04 11:12:24;;;;;;;;;;;;;;;5.30;90.57;96195.41;5041775;28;19920;-78
2020/12/04 11:14:49;;;;;;;;;;;;;;;5.41;90.43;96190.50;5042605;28;20389;-78
2020/12/04 11:17:15;;;;;;;;;;;;;;;5.59;90.30;96194.56;5039964;28;19913;-79
2020/12/04 11:19:40;;;;;;;;;;;;;;;5.80;90.07;96196.81;5040760;28;19913;-78
2020/12/04 11:22:05;;;;;;;;;;;;;;;5.77;89.07;96182.47;5038973;28;19917;-78
2020/12/04 11:24:31;;;;;;;;;;;;;;;5.90;89.01;96184.31;5041778;28;19921;-78
2020/12/04 11:26:56;;;;;;;;;;;;;;;5.87;88.57;96177.66;5033228;28;19920;-79
2020/12/04 11:29:21;;;;;;;;;;;;;;;5.94;87.92;96188.34;5033688;28;19921;-78
2020/12/04 11:31:47;;;;;;;;;;;;;;;5.94;88.28;96188.34;5040399;28;20365;-79
2020/12/04 11:34:12;;;;;;;;;;;;;;;6.10;87.31;96184.00;5039675;28;19996;-79
2020/12/04 11:36:37;;;;;;;;;;;;;;;6.13;88.12;96188.91;5041597;28;19928;-78
2020/12/04 11:39:03;;;;;;;;;;;;;;;6.09;88.05;96184.91;5042038;28;19959;-78
2020/12/04 11:41:29;;;;;;;;;;;;;;;6.16;87.11;96186.19;5042255;28;20270;-79
2020/12/04 11:43:55;;;;;;;;;;;;;;;6.19;87.57;96198.78;5035152;28;19917;-79
2020/12/04 11:46:20;;;;;;;;;;;;;;;6.28;87.55;96202.53;5016975;28;19917;-78
2020/12/04 11:48:45;;;;;;;;;;;;;;;6.30;87.34;96199.88;5041685;28;19921;-79
2020/12/04 11:51:10;;;;;;;;;;;;;;;6.47;87.59;96217.56;5042297;28;19917;-78
2020/12/04 11:53:37;;;;;;;;;;;;;;;6.31;86.65;96206.63;5040402;28;19932;-78
2020/12/04 11:56:02;;;;;;;;;;;;;;;6.35;87.69;96220.88;5017878;28;19916;-78
2020/12/04 11:58:27;;;;;;;;;;;;;;;6.27;87.54;96214.47;5040860;28;20436;-78
2020/12/04 12:00:53;;;;;;;;;;;;;;;6.35;88.07;96205.53;5040256;28;19913;-78
2020/12/04 12:03:18;;;;;;;;;;;;;;;6.50;87.54;96212.28;5040098;28;19944;-80
2020/12/04 12:05:44;;;;;;;;;;;;;;;6.40;87.76;96216.28;5040259;28;20676;-80
2020/12/04 12:08:09;;;;;;;;;;;;;;;6.49;87.58;96220.84;5038404;28;20380;-81
2020/12/04 12:10:35;;;;;;;;;;;;;;;6.39;87.70;96219.78;5040475;28;20016;-78
2020/12/04 12:13:00;;;;;;;;;;;;;;;6.39;87.74;96237.66;5041260;28;20003;-79
2020/12/04 12:15:25;;;;;;;;;;;;;;;6.46;87.51;96236.38;5038582;28;20025;-78
2020/12/04 12:17:51;;;;;;;;;;;;;;;6.53;87.24;96227.44;5040697;28;19913;-77
2020/12/04 12:20:16;;;;;;;;;;;;;;;6.54;87.62;96229.06;5041537;28;19939;-78
2020/12/04 12:22:41;;;;;;;;;;;;;;;6.47;87.47;96230.34;5038897;28;19913;-78
2020/12/04 12:25:07;;;;;;;;;;;;;;;6.62;87.21;96231.16;5041859;28;19920;-79
2020/12/04 12:27:32;;;;;;;;;;;;;;;6.53;86.53;96227.44;5039066;28;19924;-78
2020/12/04 12:29:57;;;;;;;;;;;;;;;6.73;87.47;96235.59;5041531;28;19917;-78
2020/12/04 12:32:24;;;;;;;;;;;;;;;6.75;87.09;96226.09;5016512;28;19923;-79
2020/12/04 12:37:33;;;;;;;;;;;;;;;6.58;87.12;96238.19;5039789;28;19928;-78
2020/12/04 12:39:59;;;;;;;;;;;;;;;6.75;87.09;96236.34;5040540;28;19913;-79
2020/12/04 12:42:25;;;;;;;;;;;;;;;6.89;86.46;96244.00;5034904;28;19912;-78
2020/12/04 12:44:50;;;;;;;;;;;;;;;6.83;87.13;96239.25;5040455;28;20016;-78
2020/12/04 12:47:15;;;;;;;;;;;;;;;6.80;86.48;96230.03;5031515;28;19913;-79
2020/12/04 12:49:41;;;;;;;;;;;;;;;6.95;85.80;96228.25;5030644;28;20005;-78
2020/12/04 12:52:07;;;;;;;;;;;;;;;6.98;87.23;96225.53;5040268;28;19923;-78
2020/12/04 12:54:32;;;;;;;;;;;;;;;7.22;85.85;96222.34;5040048;28;21080;-78
2020/12/04 12:56:58;;;;;;;;;;;;;;;7.36;84.26;96214.59;5039053;28;20258;-78
2020/12/04 12:59:23;;;;;;;;;;;;;;;7.12;85.42;96217.81;5039465;28;19919;-79
2020/12/04 13:01:49;;;;;;;;;;;;;;;7.16;86.43;96215.03;5041205;28;19913;-78